sensor_id;sensor_type;location;lat;lon;timestamp;temperature;humidity
43346;DHT22;28937;51.160;4.146;2023-06-22T00:02:17;24.60;86.80
43346;DHT22;28937;51.160;4.146;2023-06-22T00:04:43;24.50;87.00
43346;DHT22;28937;51.160;4.146;2023-06-22T00:07:09;24.50;86.80
43346;DHT22;28937;51.160;4.146;2023-06-22T00:09:34;24.50;86.40
43346;DHT22;28937;51.160;4.146;2023-06-22T00:12:00;24.50;86.50
43346;DHT22;28937;51.160;4.146;2023-06-22T00:14:26;24.40;86.00
43346;DHT22;28937;51.160;4.146;2023-06-22T00:16:51;24.40;86.30
43346;DHT22;28937;51.160;4.146;2023-06-22T00:19:23;24.40;86.30
43346;DHT22;28937;51.160;4.146;2023-06-22T00:21:49;24.40;87.00
43346;DHT22;28937;51.160;4.146;2023-06-22T00:24:19;24.40;87.30
43346;DHT22;28937;51.160;4.146;2023-06-22T00:26:44;24.40;87.10
43346;DHT22;28937;51.160;4.146;2023-06-22T00:29:10;24.30;86.90
43346;DHT22;28937;51.160;4.146;2023-06-22T00:31:36;24.30;87.20
43346;DHT22;28937;51.160;4.146;2023-06-22T00:34:01;24.30;86.80
43346;DHT22;28937;51.160;4.146;2023-06-22T00:36:27;24.30;87.20
43346;DHT22;28937;51.160;4.146;2023-06-22T00:38:52;24.30;87.50
43346;DHT22;28937;51.160;4.146;2023-06-22T00:41:18;24.30;87.70
43346;DHT22;28937;51.160;4.146;2023-06-22T00:43:44;24.20;86.90
43346;DHT22;28937;51.160;4.146;2023-06-22T00:46:10;24.20;87.20
43346;DHT22;28937;51.160;4.146;2023-06-22T00:48:35;24.20;87.20
43346;DHT22;28937;51.160;4.146;2023-06-22T00:51:02;24.20;87.20
43346;DHT22;28937;51.160;4.146;2023-06-22T00:53:28;24.10;86.90
43346;DHT22;28937;51.160;4.146;2023-06-22T00:55:53;24.20;86.70
43346;DHT22;28937;51.160;4.146;2023-06-22T00:58:19;24.10;86.60
43346;DHT22;28937;51.160;4.146;2023-06-22T01:00:47;24.10;86.90
43346;DHT22;28937;51.160;4.146;2023-06-22T01:03:13;24.10;87.50
43346;DHT22;28937;51.160;4.146;2023-06-22T01:05:39;24.00;87.70
43346;DHT22;28937;51.160;4.146;2023-06-22T01:11:22;24.00;87.60
43346;DHT22;28937;51.160;4.146;2023-06-22T01:14:00;24.00;87.80
43346;DHT22;28937;51.160;4.146;2023-06-22T01:16:31;24.00;87.40
43346;DHT22;28937;51.160;4.146;2023-06-22T01:19:35;24.00;87.00
43346;DHT22;28937;51.160;4.146;2023-06-22T01:22:03;23.90;87.60
43346;DHT22;28937;51.160;4.146;2023-06-22T01:24:33;23.90;87.00
43346;DHT22;28937;51.160;4.146;2023-06-22T01:29:55;23.80;87.90
43346;DHT22;28937;51.160;4.146;2023-06-22T01:32:31;23.80;87.20
43346;DHT22;28937;51.160;4.146;2023-06-22T01:34:58;23.80;86.90
43346;DHT22;28937;51.160;4.146;2023-06-22T01:37:25;23.90;86.60
43346;DHT22;28937;51.160;4.146;2023-06-22T01:39:52;23.80;85.70
43346;DHT22;28937;51.160;4.146;2023-06-22T01:42:19;23.80;86.00
43346;DHT22;28937;51.160;4.146;2023-06-22T01:44:45;23.70;85.90
43346;DHT22;28937;51.160;4.146;2023-06-22T01:47:11;23.70;85.70
43346;DHT22;28937;51.160;4.146;2023-06-22T01:49:40;23.70;86.00
43346;DHT22;28937;51.160;4.146;2023-06-22T01:52:06;23.70;86.90
43346;DHT22;28937;51.160;4.146;2023-06-22T01:54:32;23.70;86.80
43346;DHT22;28937;51.160;4.146;2023-06-22T01:56:57;23.70;86.50
43346;DHT22;28937;51.160;4.146;2023-06-22T01:59:34;23.60;86.50
43346;DHT22;28937;51.160;4.146;2023-06-22T02:02:09;23.60;86.60
43346;DHT22;28937;51.160;4.146;2023-06-22T02:04:44;23.60;86.40
43346;DHT22;28937;51.160;4.146;2023-06-22T02:07:14;23.60;86.50
43346;DHT22;28937;51.160;4.146;2023-06-22T02:09:43;23.60;86.70
43346;DHT22;28937;51.160;4.146;2023-06-22T02:12:11;23.60;86.90
43346;DHT22;28937;51.160;4.146;2023-06-22T02:14:38;23.50;87.10
43346;DHT22;28937;51.160;4.146;2023-06-22T02:17:04;23.50;87.40
43346;DHT22;28937;51.160;4.146;2023-06-22T02:19:36;23.50;87.80
43346;DHT22;28937;51.160;4.146;2023-06-22T02:22:02;23.40;87.70
43346;DHT22;28937;51.160;4.146;2023-06-22T02:24:27;23.40;87.70
43346;DHT22;28937;51.160;4.146;2023-06-22T02:27:00;23.50;87.70
43346;DHT22;28937;51.160;4.146;2023-06-22T02:29:27;23.40;87.80
43346;DHT22;28937;51.160;4.146;2023-06-22T02:31:53;23.40;87.80
43346;DHT22;28937;51.160;4.146;2023-06-22T02:34:19;23.40;87.90
43346;DHT22;28937;51.160;4.146;2023-06-22T02:36:48;23.30;87.90
43346;DHT22;28937;51.160;4.146;2023-06-22T02:39:22;23.40;87.90
43346;DHT22;28937;51.160;4.146;2023-06-22T02:41:52;23.30;87.80
43346;DHT22;28937;51.160;4.146;2023-06-22T02:44:18;23.30;87.80
43346;DHT22;28937;51.160;4.146;2023-06-22T02:46:44;23.30;87.80
43346;DHT22;28937;51.160;4.146;2023-06-22T02:49:11;23.30;87.80
43346;DHT22;28937;51.160;4.146;2023-06-22T02:51:39;23.30;87.60
43346;DHT22;28937;51.160;4.146;2023-06-22T02:54:05;23.30;87.60
43346;DHT22;28937;51.160;4.146;2023-06-22T02:56:31;23.30;88.70
43346;DHT22;28937;51.160;4.146;2023-06-22T02:58:57;23.20;87.90
43346;DHT22;28937;51.160;4.146;2023-06-22T03:01:29;23.20;88.00
43346;DHT22;28937;51.160;4.146;2023-06-22T03:03:56;23.20;88.70
43346;DHT22;28937;51.160;4.146;2023-06-22T03:06:22;23.20;88.90
43346;DHT22;28937;51.160;4.146;2023-06-22T03:08:49;23.20;89.20
43346;DHT22;28937;51.160;4.146;2023-06-22T03:11:15;23.10;89.20
43346;DHT22;28937;51.160;4.146;2023-06-22T03:13:40;23.10;89.00
43346;DHT22;28937;51.160;4.146;2023-06-22T03:16:06;23.10;89.10
43346;DHT22;28937;51.160;4.146;2023-06-22T03:18:32;23.10;89.40
43346;DHT22;28937;51.160;4.146;2023-06-22T03:20:57;23.10;89.20
43346;DHT22;28937;51.160;4.146;2023-06-22T03:23:23;23.10;89.50
43346;DHT22;28937;51.160;4.146;2023-06-22T03:25:48;23.10;89.40
43346;DHT22;28937;51.160;4.146;2023-06-22T03:28:14;23.00;89.20
43346;DHT22;28937;51.160;4.146;2023-06-22T03:30:39;23.00;89.10
43346;DHT22;28937;51.160;4.146;2023-06-22T03:33:05;23.00;89.00
43346;DHT22;28937;51.160;4.146;2023-06-22T03:35:30;23.00;89.10
43346;DHT22;28937;51.160;4.146;2023-06-22T03:37:56;23.00;89.00
43346;DHT22;28937;51.160;4.146;2023-06-22T03:40:22;22.90;89.00
43346;DHT22;28937;51.160;4.146;2023-06-22T03:42:47;23.00;89.30
43346;DHT22;28937;51.160;4.146;2023-06-22T03:45:13;22.90;89.30
43346;DHT22;28937;51.160;4.146;2023-06-22T03:47:38;22.90;89.50
43346;DHT22;28937;51.160;4.146;2023-06-22T03:50:05;22.90;89.60
43346;DHT22;28937;51.160;4.146;2023-06-22T03:52:31;22.90;89.50
43346;DHT22;28937;51.160;4.146;2023-06-22T03:54:57;22.90;89.40
43346;DHT22;28937;51.160;4.146;2023-06-22T03:57:22;22.80;89.30
43346;DHT22;28937;51.160;4.146;2023-06-22T03:59:48;22.80;89.60
43346;DHT22;28937;51.160;4.146;2023-06-22T04:02:13;22.80;89.90
43346;DHT22;28937;51.160;4.146;2023-06-22T04:04:39;22.80;90.10
43346;DHT22;28937;51.160;4.146;2023-06-22T04:07:05;22.80;90.20
43346;DHT22;28937;51.160;4.146;2023-06-22T04:09:31;22.80;90.10
43346;DHT22;28937;51.160;4.146;2023-06-22T04:11:56;22.70;90.10
43346;DHT22;28937;51.160;4.146;2023-06-22T04:14:22;22.80;90.30
43346;DHT22;28937;51.160;4.146;2023-06-22T04:16:47;22.70;90.30
43346;DHT22;28937;51.160;4.146;2023-06-22T04:19:13;22.70;90.40
43346;DHT22;28937;51.160;4.146;2023-06-22T04:21:43;22.70;90.30
43346;DHT22;28937;51.160;4.146;2023-06-22T04:24:10;22.70;90.20
43346;DHT22;28937;51.160;4.146;2023-06-22T04:26:35;22.70;90.40
43346;DHT22;28937;51.160;4.146;2023-06-22T04:29:03;22.70;90.20
43346;DHT22;28937;51.160;4.146;2023-06-22T04:31:31;22.70;90.50
43346;DHT22;28937;51.160;4.146;2023-06-22T04:33:59;22.70;90.50
43346;DHT22;28937;51.160;4.146;2023-06-22T04:36:41;22.70;90.50
43346;DHT22;28937;51.160;4.146;2023-06-22T04:39:09;22.70;90.70
43346;DHT22;28937;51.160;4.146;2023-06-22T04:41:36;22.70;90.40
43346;DHT22;28937;51.160;4.146;2023-06-22T04:44:18;22.70;90.30
43346;DHT22;28937;51.160;4.146;2023-06-22T04:46:53;22.70;90.20
43346;DHT22;28937;51.160;4.146;2023-06-22T04:49:20;22.70;90.30
43346;DHT22;28937;51.160;4.146;2023-06-22T04:51:47;22.70;90.20
43346;DHT22;28937;51.160;4.146;2023-06-22T04:54:13;22.70;90.30
43346;DHT22;28937;51.160;4.146;2023-06-22T04:56:38;22.70;90.30
43346;DHT22;28937;51.160;4.146;2023-06-22T04:59:06;22.80;90.40
43346;DHT22;28937;51.160;4.146;2023-06-22T05:01:32;22.70;90.50
43346;DHT22;28937;51.160;4.146;2023-06-22T05:03:58;22.80;90.50
43346;DHT22;28937;51.160;4.146;2023-06-22T05:06:26;22.70;90.50
43346;DHT22;28937;51.160;4.146;2023-06-22T05:08:56;22.70;90.60
43346;DHT22;28937;51.160;4.146;2023-06-22T05:11:26;22.80;90.60
43346;DHT22;28937;51.160;4.146;2023-06-22T05:13:53;22.80;90.70
43346;DHT22;28937;51.160;4.146;2023-06-22T05:16:20;22.80;90.80
43346;DHT22;28937;51.160;4.146;2023-06-22T05:18:53;22.80;90.80
43346;DHT22;28937;51.160;4.146;2023-06-22T05:21:26;22.80;90.80
43346;DHT22;28937;51.160;4.146;2023-06-22T05:23:52;22.80;90.90
43346;DHT22;28937;51.160;4.146;2023-06-22T05:26:19;22.80;91.00
43346;DHT22;28937;51.160;4.146;2023-06-22T05:28:45;22.80;91.00
43346;DHT22;28937;51.160;4.146;2023-06-22T05:31:13;22.80;91.00
43346;DHT22;28937;51.160;4.146;2023-06-22T05:33:39;22.80;91.10
43346;DHT22;28937;51.160;4.146;2023-06-22T05:36:05;22.80;91.10
43346;DHT22;28937;51.160;4.146;2023-06-22T05:38:30;22.80;91.20
43346;DHT22;28937;51.160;4.146;2023-06-22T05:40:56;22.80;91.20
43346;DHT22;28937;51.160;4.146;2023-06-22T05:43:22;22.80;91.20
43346;DHT22;28937;51.160;4.146;2023-06-22T05:45:47;22.80;91.50
43346;DHT22;28937;51.160;4.146;2023-06-22T05:48:13;22.70;91.70
43346;DHT22;28937;51.160;4.146;2023-06-22T05:50:39;22.70;91.80
43346;DHT22;28937;51.160;4.146;2023-06-22T05:53:04;22.70;92.00
43346;DHT22;28937;51.160;4.146;2023-06-22T05:55:32;22.70;92.00
43346;DHT22;28937;51.160;4.146;2023-06-22T05:57:58;22.70;92.00
43346;DHT22;28937;51.160;4.146;2023-06-22T06:00:23;22.70;92.00
43346;DHT22;28937;51.160;4.146;2023-06-22T06:02:49;22.70;92.10
43346;DHT22;28937;51.160;4.146;2023-06-22T06:05:15;22.70;92.20
43346;DHT22;28937;51.160;4.146;2023-06-22T06:07:42;22.70;92.10
43346;DHT22;28937;51.160;4.146;2023-06-22T06:10:08;22.80;92.10
43346;DHT22;28937;51.160;4.146;2023-06-22T06:12:34;22.80;92.20
43346;DHT22;28937;51.160;4.146;2023-06-22T06:15:00;22.80;92.30
43346;DHT22;28937;51.160;4.146;2023-06-22T06:17:25;22.80;92.20
43346;DHT22;28937;51.160;4.146;2023-06-22T06:19:51;22.90;92.30
43346;DHT22;28937;51.160;4.146;2023-06-22T06:22:16;22.80;92.30
43346;DHT22;28937;51.160;4.146;2023-06-22T06:24:44;22.90;92.40
43346;DHT22;28937;51.160;4.146;2023-06-22T06:27:09;22.90;92.40
43346;DHT22;28937;51.160;4.146;2023-06-22T06:29:35;23.00;92.40
43346;DHT22;28937;51.160;4.146;2023-06-22T06:32:00;22.90;92.40
43346;DHT22;28937;51.160;4.146;2023-06-22T06:34:26;22.90;92.60
43346;DHT22;28937;51.160;4.146;2023-06-22T06:36:51;22.90;92.60
43346;DHT22;28937;51.160;4.146;2023-06-22T06:39:17;22.90;92.70
43346;DHT22;28937;51.160;4.146;2023-06-22T06:41:43;23.00;92.70
43346;DHT22;28937;51.160;4.146;2023-06-22T06:44:08;23.00;92.90
43346;DHT22;28937;51.160;4.146;2023-06-22T06:46:34;23.00;92.90
43346;DHT22;28937;51.160;4.146;2023-06-22T06:48:59;23.00;93.00
43346;DHT22;28937;51.160;4.146;2023-06-22T06:51:25;23.00;93.10
43346;DHT22;28937;51.160;4.146;2023-06-22T06:53:50;23.00;93.00
43346;DHT22;28937;51.160;4.146;2023-06-22T06:56:16;23.00;93.10
43346;DHT22;28937;51.160;4.146;2023-06-22T06:58:42;23.10;93.10
43346;DHT22;28937;51.160;4.146;2023-06-22T07:01:08;23.10;93.20
43346;DHT22;28937;51.160;4.146;2023-06-22T07:03:34;23.10;93.30
43346;DHT22;28937;51.160;4.146;2023-06-22T07:06:00;23.10;93.50
43346;DHT22;28937;51.160;4.146;2023-06-22T07:08:26;23.10;93.50
43346;DHT22;28937;51.160;4.146;2023-06-22T07:10:52;23.10;93.70
43346;DHT22;28937;51.160;4.146;2023-06-22T07:13:17;23.10;93.80
43346;DHT22;28937;51.160;4.146;2023-06-22T07:15:43;23.10;93.80
43346;DHT22;28937;51.160;4.146;2023-06-22T07:18:09;23.10;93.90
43346;DHT22;28937;51.160;4.146;2023-06-22T07:20:34;23.20;94.00
43346;DHT22;28937;51.160;4.146;2023-06-22T07:23:00;23.20;94.10
43346;DHT22;28937;51.160;4.146;2023-06-22T07:25:26;23.20;94.20
43346;DHT22;28937;51.160;4.146;2023-06-22T07:28:04;23.20;94.20
43346;DHT22;28937;51.160;4.146;2023-06-22T07:30:31;23.20;94.00
43346;DHT22;28937;51.160;4.146;2023-06-22T07:32:57;23.20;93.90
43346;DHT22;28937;51.160;4.146;2023-06-22T07:35:24;23.20;93.80
43346;DHT22;28937;51.160;4.146;2023-06-22T07:37:49;23.20;93.50
43346;DHT22;28937;51.160;4.146;2023-06-22T07:40:15;23.30;93.60
43346;DHT22;28937;51.160;4.146;2023-06-22T07:42:41;23.30;93.70
43346;DHT22;28937;51.160;4.146;2023-06-22T07:45:07;23.30;93.70
43346;DHT22;28937;51.160;4.146;2023-06-22T07:47:34;23.30;93.50
43346;DHT22;28937;51.160;4.146;2023-06-22T07:50:01;23.30;93.00
43346;DHT22;28937;51.160;4.146;2023-06-22T07:52:28;23.30;92.70
43346;DHT22;28937;51.160;4.146;2023-06-22T07:54:53;23.30;92.50
43346;DHT22;28937;51.160;4.146;2023-06-22T07:57:20;23.30;92.50
43346;DHT22;28937;51.160;4.146;2023-06-22T07:59:45;23.30;92.50
43346;DHT22;28937;51.160;4.146;2023-06-22T08:02:11;23.40;92.60
43346;DHT22;28937;51.160;4.146;2023-06-22T08:04:37;23.40;92.50
43346;DHT22;28937;51.160;4.146;2023-06-22T08:07:03;23.40;92.50
43346;DHT22;28937;51.160;4.146;2023-06-22T08:09:31;23.40;92.40
43346;DHT22;28937;51.160;4.146;2023-06-22T08:11:58;23.40;92.20
43346;DHT22;28937;51.160;4.146;2023-06-22T08:14:29;23.40;92.10
43346;DHT22;28937;51.160;4.146;2023-06-22T08:16:54;23.50;92.20
43346;DHT22;28937;51.160;4.146;2023-06-22T08:19:20;23.50;92.20
43346;DHT22;28937;51.160;4.146;2023-06-22T08:21:46;23.40;92.20
43346;DHT22;28937;51.160;4.146;2023-06-22T08:24:11;23.50;92.30
43346;DHT22;28937;51.160;4.146;2023-06-22T08:26:38;23.50;92.30
43346;DHT22;28937;51.160;4.146;2023-06-22T08:29:04;23.50;92.30
43346;DHT22;28937;51.160;4.146;2023-06-22T08:31:31;23.50;92.40
43346;DHT22;28937;51.160;4.146;2023-06-22T08:33:57;23.50;92.50
43346;DHT22;28937;51.160;4.146;2023-06-22T08:36:23;23.50;92.50
43346;DHT22;28937;51.160;4.146;2023-06-22T08:38:48;23.60;92.50
43346;DHT22;28937;51.160;4.146;2023-06-22T08:41:16;23.50;92.60
43346;DHT22;28937;51.160;4.146;2023-06-22T08:43:43;23.50;92.60
43346;DHT22;28937;51.160;4.146;2023-06-22T08:46:10;23.50;92.50
43346;DHT22;28937;51.160;4.146;2023-06-22T08:48:36;23.60;92.80
43346;DHT22;28937;51.160;4.146;2023-06-22T08:51:01;23.60;93.00
43346;DHT22;28937;51.160;4.146;2023-06-22T08:53:28;23.60;93.00
43346;DHT22;28937;51.160;4.146;2023-06-22T08:55:53;23.60;93.20
43346;DHT22;28937;51.160;4.146;2023-06-22T08:58:19;23.60;93.30
43346;DHT22;28937;51.160;4.146;2023-06-22T09:00:47;23.60;93.30
43346;DHT22;28937;51.160;4.146;2023-06-22T09:03:13;23.60;93.40
43346;DHT22;28937;51.160;4.146;2023-06-22T09:05:39;23.70;93.40
43346;DHT22;28937;51.160;4.146;2023-06-22T09:08:04;23.70;93.20
43346;DHT22;28937;51.160;4.146;2023-06-22T09:10:30;23.60;93.20
43346;DHT22;28937;51.160;4.146;2023-06-22T09:12:57;23.70;93.20
43346;DHT22;28937;51.160;4.146;2023-06-22T09:15:22;23.60;93.10
43346;DHT22;28937;51.160;4.146;2023-06-22T09:17:48;23.70;93.10
43346;DHT22;28937;51.160;4.146;2023-06-22T09:20:14;23.70;92.90
43346;DHT22;28937;51.160;4.146;2023-06-22T09:22:41;23.70;93.00
43346;DHT22;28937;51.160;4.146;2023-06-22T09:25:07;23.70;93.00
43346;DHT22;28937;51.160;4.146;2023-06-22T09:27:33;23.70;93.60
43346;DHT22;28937;51.160;4.146;2023-06-22T09:29:58;23.70;93.00
43346;DHT22;28937;51.160;4.146;2023-06-22T09:32:25;23.70;92.90
43346;DHT22;28937;51.160;4.146;2023-06-22T09:34:51;23.70;92.90
43346;DHT22;28937;51.160;4.146;2023-06-22T09:37:17;23.70;92.90
43346;DHT22;28937;51.160;4.146;2023-06-22T09:39:42;23.70;92.90
43346;DHT22;28937;51.160;4.146;2023-06-22T09:42:08;23.70;93.00
43346;DHT22;28937;51.160;4.146;2023-06-22T09:44:34;23.70;93.80
43346;DHT22;28937;51.160;4.146;2023-06-22T09:47:00;23.80;94.60
43346;DHT22;28937;51.160;4.146;2023-06-22T09:49:26;23.80;94.00
43346;DHT22;28937;51.160;4.146;2023-06-22T09:51:51;23.80;93.90
43346;DHT22;28937;51.160;4.146;2023-06-22T09:54:17;23.70;94.20
43346;DHT22;28937;51.160;4.146;2023-06-22T09:56:43;23.80;94.30
43346;DHT22;28937;51.160;4.146;2023-06-22T09:59:09;23.80;94.20
43346;DHT22;28937;51.160;4.146;2023-06-22T10:01:35;23.80;94.00
43346;DHT22;28937;51.160;4.146;2023-06-22T10:04:01;23.80;93.90
43346;DHT22;28937;51.160;4.146;2023-06-22T10:06:27;23.80;94.30
43346;DHT22;28937;51.160;4.146;2023-06-22T10:08:52;23.80;94.60
43346;DHT22;28937;51.160;4.146;2023-06-22T10:11:18;23.80;94.30
43346;DHT22;28937;51.160;4.146;2023-06-22T10:13:44;23.80;94.20
43346;DHT22;28937;51.160;4.146;2023-06-22T10:16:09;23.80;94.10
43346;DHT22;28937;51.160;4.146;2023-06-22T10:18:35;23.80;93.90
43346;DHT22;28937;51.160;4.146;2023-06-22T10:21:01;23.80;93.80
43346;DHT22;28937;51.160;4.146;2023-06-22T10:23:26;23.80;93.70
43346;DHT22;28937;51.160;4.146;2023-06-22T10:25:52;23.80;93.80
43346;DHT22;28937;51.160;4.146;2023-06-22T10:28:18;23.80;94.00
43346;DHT22;28937;51.160;4.146;2023-06-22T10:30:43;23.80;94.00
43346;DHT22;28937;51.160;4.146;2023-06-22T10:33:11;23.80;94.10
43346;DHT22;28937;51.160;4.146;2023-06-22T10:35:37;23.80;94.40
43346;DHT22;28937;51.160;4.146;2023-06-22T10:38:03;23.80;94.40
43346;DHT22;28937;51.160;4.146;2023-06-22T10:40:29;23.80;94.70
43346;DHT22;28937;51.160;4.146;2023-06-22T10:42:55;23.80;94.70
43346;DHT22;28937;51.160;4.146;2023-06-22T10:45:20;23.80;95.00
43346;DHT22;28937;51.160;4.146;2023-06-22T10:47:46;23.80;95.00
43346;DHT22;28937;51.160;4.146;2023-06-22T10:50:12;23.80;95.10
43346;DHT22;28937;51.160;4.146;2023-06-22T10:52:38;23.80;95.10
43346;DHT22;28937;51.160;4.146;2023-06-22T10:55:05;23.80;94.80
43346;DHT22;28937;51.160;4.146;2023-06-22T10:57:30;23.80;94.50
43346;DHT22;28937;51.160;4.146;2023-06-22T10:59:56;23.80;94.30
43346;DHT22;28937;51.160;4.146;2023-06-22T11:02:23;23.80;94.10
43346;DHT22;28937;51.160;4.146;2023-06-22T11:04:49;23.80;94.40
43346;DHT22;28937;51.160;4.146;2023-06-22T11:07:15;23.80;94.40
43346;DHT22;28937;51.160;4.146;2023-06-22T11:09:43;23.80;94.90
43346;DHT22;28937;51.160;4.146;2023-06-22T11:12:09;23.70;95.30
43346;DHT22;28937;51.160;4.146;2023-06-22T11:14:34;23.70;96.10
43346;DHT22;28937;51.160;4.146;2023-06-22T11:17:00;23.70;96.30
43346;DHT22;28937;51.160;4.146;2023-06-22T11:19:26;23.80;96.70
43346;DHT22;28937;51.160;4.146;2023-06-22T11:21:51;23.70;96.80
43346;DHT22;28937;51.160;4.146;2023-06-22T11:24:17;23.70;96.80
43346;DHT22;28937;51.160;4.146;2023-06-22T11:26:43;23.70;97.00
43346;DHT22;28937;51.160;4.146;2023-06-22T11:29:09;23.70;97.00
43346;DHT22;28937;51.160;4.146;2023-06-22T11:31:35;23.60;96.70
43346;DHT22;28937;51.160;4.146;2023-06-22T11:34:02;23.60;96.60
43346;DHT22;28937;51.160;4.146;2023-06-22T11:36:30;23.60;96.70
43346;DHT22;28937;51.160;4.146;2023-06-22T11:38:58;23.70;96.90
43346;DHT22;28937;51.160;4.146;2023-06-22T11:41:24;23.60;96.70
43346;DHT22;28937;51.160;4.146;2023-06-22T11:43:49;23.60;96.80
43346;DHT22;28937;51.160;4.146;2023-06-22T11:46:15;23.60;96.90
43346;DHT22;28937;51.160;4.146;2023-06-22T11:48:40;23.60;96.90
43346;DHT22;28937;51.160;4.146;2023-06-22T11:51:06;23.60;96.90
43346;DHT22;28937;51.160;4.146;2023-06-22T11:53:34;23.50;96.80
43346;DHT22;28937;51.160;4.146;2023-06-22T11:56:00;23.60;96.70
43346;DHT22;28937;51.160;4.146;2023-06-22T11:58:26;23.60;96.80
43346;DHT22;28937;51.160;4.146;2023-06-22T12:00:53;23.60;96.90
43346;DHT22;28937;51.160;4.146;2023-06-22T12:03:19;23.50;96.90
43346;DHT22;28937;51.160;4.146;2023-06-22T12:05:47;23.50;96.80
43346;DHT22;28937;51.160;4.146;2023-06-22T12:08:12;23.50;97.10
43346;DHT22;28937;51.160;4.146;2023-06-22T12:10:39;23.60;97.00
43346;DHT22;28937;51.160;4.146;2023-06-22T12:13:04;23.60;96.80
43346;DHT22;28937;51.160;4.146;2023-06-22T12:15:30;23.60;96.40
43346;DHT22;28937;51.160;4.146;2023-06-22T12:17:55;23.50;96.40
43346;DHT22;28937;51.160;4.146;2023-06-22T12:20:21;23.60;96.50
43346;DHT22;28937;51.160;4.146;2023-06-22T12:22:46;23.50;96.60
43346;DHT22;28937;51.160;4.146;2023-06-22T12:25:13;23.50;96.50
43346;DHT22;28937;51.160;4.146;2023-06-22T12:27:38;23.50;96.70
43346;DHT22;28937;51.160;4.146;2023-06-22T12:30:04;23.60;96.80
43346;DHT22;28937;51.160;4.146;2023-06-22T12:32:30;23.60;97.00
43346;DHT22;28937;51.160;4.146;2023-06-22T12:34:56;23.50;97.10
43346;DHT22;28937;51.160;4.146;2023-06-22T12:37:22;23.50;97.10
43346;DHT22;28937;51.160;4.146;2023-06-22T12:39:48;23.60;97.40
43346;DHT22;28937;51.160;4.146;2023-06-22T12:42:15;23.60;97.50
43346;DHT22;28937;51.160;4.146;2023-06-22T12:44:41;23.60;97.60
43346;DHT22;28937;51.160;4.146;2023-06-22T12:47:07;23.60;97.60
43346;DHT22;28937;51.160;4.146;2023-06-22T12:49:34;23.60;97.90
43346;DHT22;28937;51.160;4.146;2023-06-22T12:52:00;23.60;98.20
43346;DHT22;28937;51.160;4.146;2023-06-22T12:54:26;23.50;98.10
43346;DHT22;28937;51.160;4.146;2023-06-22T12:56:51;23.60;98.20
43346;DHT22;28937;51.160;4.146;2023-06-22T12:59:17;23.50;98.10
43346;DHT22;28937;51.160;4.146;2023-06-22T13:01:43;23.50;98.40
43346;DHT22;28937;51.160;4.146;2023-06-22T13:04:11;23.50;98.60
43346;DHT22;28937;51.160;4.146;2023-06-22T13:06:43;23.60;98.40
43346;DHT22;28937;51.160;4.146;2023-06-22T13:09:10;23.60;98.40
43346;DHT22;28937;51.160;4.146;2023-06-22T13:11:35;23.60;98.70
43346;DHT22;28937;51.160;4.146;2023-06-22T13:14:01;23.60;98.70
43346;DHT22;28937;51.160;4.146;2023-06-22T13:16:27;23.60;98.40
43346;DHT22;28937;51.160;4.146;2023-06-22T13:18:53;23.60;98.70
43346;DHT22;28937;51.160;4.146;2023-06-22T13:21:18;23.50;98.50
43346;DHT22;28937;51.160;4.146;2023-06-22T13:23:44;23.50;98.40
43346;DHT22;28937;51.160;4.146;2023-06-22T13:26:10;23.50;98.60
43346;DHT22;28937;51.160;4.146;2023-06-22T13:28:36;23.40;98.60
43346;DHT22;28937;51.160;4.146;2023-06-22T13:31:01;23.50;98.70
43346;DHT22;28937;51.160;4.146;2023-06-22T13:33:27;23.50;98.70
43346;DHT22;28937;51.160;4.146;2023-06-22T13:35:53;23.50;98.70
43346;DHT22;28937;51.160;4.146;2023-06-22T13:38:18;23.50;98.60
43346;DHT22;28937;51.160;4.146;2023-06-22T13:40:44;23.50;98.80
43346;DHT22;28937;51.160;4.146;2023-06-22T13:43:10;23.50;98.60
43346;DHT22;28937;51.160;4.146;2023-06-22T13:45:36;23.50;98.60
43346;DHT22;28937;51.160;4.146;2023-06-22T13:48:01;23.40;98.40
43346;DHT22;28937;51.160;4.146;2023-06-22T13:50:27;23.50;98.40
43346;DHT22;28937;51.160;4.146;2023-06-22T13:52:54;23.40;98.40
43346;DHT22;28937;51.160;4.146;2023-06-22T13:55:20;23.40;98.40
43346;DHT22;28937;51.160;4.146;2023-06-22T13:57:46;23.40;98.60
43346;DHT22;28937;51.160;4.146;2023-06-22T14:00:12;23.40;98.70
43346;DHT22;28937;51.160;4.146;2023-06-22T14:02:38;23.40;98.50
43346;DHT22;28937;51.160;4.146;2023-06-22T14:05:05;23.40;98.70
43346;DHT22;28937;51.160;4.146;2023-06-22T14:07:31;23.30;98.70
43346;DHT22;28937;51.160;4.146;2023-06-22T14:09:57;23.30;98.60
43346;DHT22;28937;51.160;4.146;2023-06-22T14:12:24;23.30;98.90
43346;DHT22;28937;51.160;4.146;2023-06-22T14:14:49;23.40;99.00
43346;DHT22;28937;51.160;4.146;2023-06-22T14:17:15;23.30;98.90
43346;DHT22;28937;51.160;4.146;2023-06-22T14:19:41;23.40;99.00
43346;DHT22;28937;51.160;4.146;2023-06-22T14:22:06;23.30;99.10
43346;DHT22;28937;51.160;4.146;2023-06-22T14:24:32;23.30;99.20
43346;DHT22;28937;51.160;4.146;2023-06-22T14:26:58;23.30;99.30
43346;DHT22;28937;51.160;4.146;2023-06-22T14:29:24;23.30;99.40
43346;DHT22;28937;51.160;4.146;2023-06-22T14:31:50;23.30;99.30
43346;DHT22;28937;51.160;4.146;2023-06-22T14:34:16;23.40;99.40
43346;DHT22;28937;51.160;4.146;2023-06-22T14:36:42;23.30;99.60
43346;DHT22;28937;51.160;4.146;2023-06-22T14:39:08;23.30;99.60
43346;DHT22;28937;51.160;4.146;2023-06-22T14:41:34;23.30;99.40
43346;DHT22;28937;51.160;4.146;2023-06-22T14:44:00;23.30;99.50
43346;DHT22;28937;51.160;4.146;2023-06-22T14:46:27;23.30;99.60
43346;DHT22;28937;51.160;4.146;2023-06-22T14:48:52;23.30;99.60
43346;DHT22;28937;51.160;4.146;2023-06-22T14:51:18;23.20;99.60
43346;DHT22;28937;51.160;4.146;2023-06-22T14:53:44;23.20;99.80
43346;DHT22;28937;51.160;4.146;2023-06-22T14:56:10;23.30;99.70
43346;DHT22;28937;51.160;4.146;2023-06-22T14:58:36;23.30;99.70
43346;DHT22;28937;51.160;4.146;2023-06-22T15:01:05;23.20;99.60
43346;DHT22;28937;51.160;4.146;2023-06-22T15:03:34;23.30;99.70
43346;DHT22;28937;51.160;4.146;2023-06-22T15:06:02;23.20;99.80
43346;DHT22;28937;51.160;4.146;2023-06-22T15:08:28;23.20;99.90
43346;DHT22;28937;51.160;4.146;2023-06-22T15:10:54;23.20;99.90
43346;DHT22;28937;51.160;4.146;2023-06-22T15:13:20;23.20;99.90
43346;DHT22;28937;51.160;4.146;2023-06-22T15:15:47;23.20;99.90
43346;DHT22;28937;51.160;4.146;2023-06-22T15:18:15;23.20;99.90
43346;DHT22;28937;51.160;4.146;2023-06-22T15:20:42;23.20;99.90
43346;DHT22;28937;51.160;4.146;2023-06-22T15:23:10;23.20;99.90
43346;DHT22;28937;51.160;4.146;2023-06-22T15:25:35;23.20;99.90
43346;DHT22;28937;51.160;4.146;2023-06-22T15:28:01;23.20;99.90
43346;DHT22;28937;51.160;4.146;2023-06-22T15:30:28;23.20;99.90
43346;DHT22;28937;51.160;4.146;2023-06-22T15:32:54;23.20;99.90